Terminal Aerodrome Forecast
Issued by NWS Buffalo, NY

Home | Current Version | Previous Version | Text Only | Print | Product List | Glossary On
Versions: 1 2 3 4 5 6 7 8 9 10 11 12 13 14 15 16 17 18 19 20 21 22 23 24 25 26
000
FTUS41 KBUF 192320
TAFBUF
TAF
KBUF 192320Z 2000/2024 24008KT P6SM SCT200
     FM200300 30006KT P6SM SCT200
     FM200800 33006KT P6SM SCT035 SCT200
     FM201500 VRB03KT P6SM SCT200
     FM202000 05004KT P6SM FEW250=

USA.gov is the U.S. government's official web portal to all federal, state and local government web resources and services.